Time;durP1;ratioP1;P1;durP2;ratioP2;P2;SDS_P1;SDS_P2;PMS_P1;PMS_P2;Temp;Humidity;BMP_temperature;BMP_pressure;BME280_temperature;BME280_humidity;BME280_pressure;Samples;Min_cycle;Max_cycle;Signal;HPM_P1;HPM_P2
2022/06/15 00:00:02;;;;;;;5.40;2.40;;;22.70;55.90;;;;;;5062695;28;20386;-65
2022/06/15 00:02:28;;;;;;;6.93;2.50;;;22.70;55.90;;;;;;5063747;28;20055;-65
2022/06/15 00:04:53;;;;;;;6.93;2.33;;;22.70;55.90;;;;;;5065625;28;20095;-65
2022/06/15 00:07:19;;;;;;;6.43;2.40;;;22.70;55.90;;;;;;5064567;28;20048;-65
2022/06/15 00:09:45;;;;;;;6.93;2.47;;;22.70;55.90;;;;;;5063646;28;20039;-65
2022/06/15 00:12:10;;;;;;;4.75;2.38;;;22.70;55.90;;;;;;5063971;28;20020;-65
2022/06/15 00:14:36;;;;;;;6.35;2.50;;;22.70;55.90;;;;;;5063586;28;20043;-65
2022/06/15 00:17:02;;;;;;;7.28;2.63;;;22.70;55.90;;;;;;5064559;28;20456;-65
2022/06/15 00:19:28;;;;;;;6.57;2.40;;;22.60;55.80;;;;;;5063014;28;20028;-65
2022/06/15 00:21:53;;;;;;;4.50;2.20;;;22.60;55.80;;;;;;5064890;28;20036;-65
2022/06/15 00:24:19;;;;;;;5.35;2.40;;;22.60;55.90;;;;;;5063557;28;20413;-65
2022/06/15 00:26:45;;;;;;;6.55;2.30;;;22.60;55.80;;;;;;5062705;28;20570;-65
2022/06/15 00:29:10;;;;;;;5.85;2.30;;;22.60;55.80;;;;;;5065739;28;20036;-65
2022/06/15 00:31:36;;;;;;;6.43;2.10;;;22.60;55.80;;;;;;5062604;28;20060;-65
2022/06/15 00:34:02;;;;;;;7.65;2.58;;;22.60;55.80;;;;;;5062209;28;20060;-65
2022/06/15 00:36:27;;;;;;;4.70;2.03;;;22.60;55.80;;;;;;5061038;28;20029;-65
2022/06/15 00:38:54;;;;;;;5.95;2.40;;;22.60;56.90;;;;;;5064047;28;20046;-65
2022/06/15 00:41:23;;;;;;;5.47;2.13;;;22.60;55.80;;;;;;5065043;28;20052;-65
2022/06/15 00:43:57;;;;;;;6.82;2.20;;;22.60;55.80;;;;;;5063565;28;20036;-65
2022/06/15 00:46:29;;;;;;;7.35;2.55;;;22.60;55.80;;;;;;5064803;28;20020;-65
2022/06/15 00:49:00;;;;;;;6.25;2.25;;;22.60;55.80;;;;;;5062557;28;20039;-65
2022/06/15 00:51:26;;;;;;;5.63;2.40;;;22.50;55.80;;;;;;5062604;28;20075;-65
2022/06/15 00:53:51;;;;;;;4.70;2.17;;;22.50;55.80;;;;;;5063920;28;20071;-65
2022/06/15 00:56:17;;;;;;;5.90;2.30;;;22.50;55.80;;;;;;5063145;28;20035;-65
2022/06/15 00:58:45;;;;;;;6.13;2.33;;;22.50;55.80;;;;;;5063200;28;20091;-65
2022/06/15 01:01:11;;;;;;;4.97;2.30;;;22.50;55.80;;;;;;5063493;28;20041;-65
2022/06/15 01:03:37;;;;;;;5.00;2.20;;;22.50;55.80;;;;;;5061771;28;20104;-65
2022/06/15 01:06:26;;;;;;;5.63;2.30;;;22.50;55.80;;;;;;5064250;28;20032;-65
2022/06/15 01:08:59;;;;;;;4.80;2.22;;;22.50;55.80;;;;;;5059239;28;20100;-65
2022/06/15 01:11:59;;;;;;;8.00;2.70;;;22.40;55.70;;;;;;5060639;28;20040;-65
2022/06/15 01:14:46;;;;;;;6.10;2.22;;;22.50;55.80;;;;;;5062847;28;20032;-65
2022/06/15 01:17:23;;;;;;;5.63;2.25;;;22.50;55.80;;;;;;5065446;28;20025;-65
2022/06/15 01:20:07;;;;;;;7.95;2.33;;;22.50;55.80;;;;;;5063506;28;20040;-65
2022/06/15 01:22:39;;;;;;;6.72;2.22;;;22.40;55.80;;;;;;5061988;28;20075;-65
2022/06/15 01:25:14;;;;;;;4.75;2.10;;;22.40;55.80;;;;;;5062283;28;20040;-65
2022/06/15 01:27:51;;;;;;;4.57;2.33;;;22.40;55.90;;;;;;5060673;28;20020;-65
2022/06/15 01:30:20;;;;;;;6.45;2.40;;;22.40;55.90;;;;;;5062489;28;20500;-65
2022/06/15 01:33:03;;;;;;;4.68;2.28;;;22.40;55.90;;;;;;5067713;28;20046;-65
2022/06/15 01:35:38;;;;;;;5.15;2.20;;;22.40;55.90;;;;;;5065833;28;20086;-65
2022/06/15 01:38:21;;;;;;;5.50;2.30;;;22.40;55.90;;;;;;5066706;28;20029;-65
2022/06/15 01:41:14;;;;;;;4.78;2.08;;;22.40;56.00;;;;;;5067115;28;20036;-66
2022/06/15 01:44:11;;;;;;;5.10;2.28;;;22.30;55.90;;;;;;5064841;28;20535;-65
2022/06/15 01:46:38;;;;;;;4.40;2.03;;;22.30;55.90;;;;;;5065967;28;20028;-66
2022/06/15 01:49:04;;;;;;;4.80;2.03;;;22.40;55.90;;;;;;5065785;28;20067;-65
2022/06/15 01:51:33;;;;;;;5.57;2.20;;;22.30;55.90;;;;;;5066213;28;20098;-64
2022/06/15 01:54:04;;;;;;;5.78;2.33;;;22.30;55.90;;;;;;5067823;28;20032;-65
2022/06/15 01:56:42;;;;;;;4.20;2.20;;;22.30;55.90;;;;;;5065590;28;20751;-65
2022/06/15 01:59:11;;;;;;;4.75;2.10;;;22.30;56.00;;;;;;5051800;28;20052;-65
2022/06/15 02:02:15;;;;;;;6.63;2.35;;;22.30;55.90;;;;;;5067684;28;20028;-65
2022/06/15 02:04:56;;;;;;;5.32;2.05;;;22.30;56.00;;;;;;5063533;28;20044;-65
2022/06/15 02:07:39;;;;;;;4.90;1.90;;;22.30;56.00;;;;;;5066902;28;20028;-65
2022/06/15 02:10:32;;;;;;;5.68;2.15;;;22.30;56.00;;;;;;5063893;28;20743;-65
2022/06/15 02:13:12;;;;;;;5.03;2.03;;;22.30;56.00;;;;;;5063195;28;20032;-65
2022/06/15 02:15:38;;;;;;;4.65;2.10;;;22.30;56.00;;;;;;5065007;28;20112;-65
2022/06/15 02:18:06;;;;;;;5.25;2.10;;;22.30;56.10;;;;;;5065555;28;20021;-65
2022/06/15 02:20:33;;;;;;;5.00;2.20;;;22.30;56.10;;;;;;5065885;28;20033;-65
2022/06/15 02:23:01;;;;;;;6.05;2.38;;;22.20;56.00;;;;;;5065424;28;20433;-65
2022/06/15 02:25:30;;;;;;;4.20;2.00;;;22.20;56.00;;;;;;5065612;28;20086;-65
2022/06/15 02:27:56;;;;;;;7.18;2.42;;;22.20;56.00;;;;;;5063049;28;20025;-65
2022/06/15 02:30:23;;;;;;;6.05;2.10;;;22.20;56.00;;;;;;5064218;28;20055;-65
2022/06/15 02:32:49;;;;;;;4.57;2.20;;;22.20;56.00;;;;;;5065865;28;20020;-65
2022/06/15 02:35:15;;;;;;;4.88;1.98;;;22.20;56.00;;;;;;5067890;28;20020;-66
2022/06/15 02:37:41;;;;;;;4.82;2.10;;;22.20;56.10;;;;;;5064075;28;20025;-65
2022/06/15 02:40:07;;;;;;;6.28;2.00;;;22.20;56.10;;;;;;5063441;28;20039;-65
2022/06/15 02:42:34;;;;;;;3.42;1.95;;;22.20;56.10;;;;;;5064491;28;20044;-65
2022/06/15 02:45:23;;;;;;;5.50;2.20;;;22.20;56.10;;;;;;5065646;28;20032;-65
2022/06/15 02:47:49;;;;;;;3.83;1.95;;;22.20;56.10;;;;;;5064401;28;20162;-65
2022/06/15 02:50:18;;;;;;;4.75;2.25;;;22.10;56.10;;;;;;5064414;28;21550;-65
2022/06/15 02:52:47;;;;;;;4.85;2.10;;;22.20;56.20;;;;;;5065504;28;20033;-66
2022/06/15 02:55:14;;;;;;;5.72;1.92;;;22.10;56.10;;;;;;5065449;28;20386;-65
2022/06/15 02:58:00;;;;;;;5.88;2.15;;;22.10;56.10;;;;;;5065921;28;20028;-65
2022/06/15 03:00:26;;;;;;;4.80;1.90;;;22.10;56.10;;;;;;5062623;28;20789;-65
2022/06/15 03:02:52;;;;;;;4.68;1.83;;;22.10;56.20;;;;;;5065063;28;20021;-65
2022/06/15 03:05:18;;;;;;;3.95;1.83;;;22.10;56.10;;;;;;5070302;28;20090;-66
2022/06/15 03:07:44;;;;;;;4.70;2.10;;;22.10;56.20;;;;;;5069315;28;20111;-65
2022/06/15 03:10:09;;;;;;;5.28;2.30;;;22.10;56.20;;;;;;5066834;28;20108;-65
2022/06/15 03:12:35;;;;;;;4.97;1.92;;;22.10;56.10;;;;;;5065104;28;20036;-65
2022/06/15 03:15:01;;;;;;;4.50;2.00;;;22.10;56.10;;;;;;5062606;28;20033;-65
2022/06/15 03:17:26;;;;;;;3.90;2.00;;;22.10;56.10;;;;;;5065311;28;20036;-65
2022/06/15 03:19:52;;;;;;;2.85;1.80;;;22.10;56.10;;;;;;5067690;28;20021;-65
2022/06/15 03:22:17;;;;;;;6.38;1.98;;;22.00;56.00;;;;;;5066210;28;20454;-65
2022/06/15 03:24:43;;;;;;;3.67;1.90;;;22.00;56.00;;;;;;5066289;28;20039;-65
2022/06/15 03:27:09;;;;;;;3.60;1.83;;;22.00;56.10;;;;;;5063345;28;20027;-66
2022/06/15 03:29:36;;;;;;;4.28;2.08;;;22.00;56.10;;;;;;5066678;28;21765;-65
2022/06/15 03:32:02;;;;;;;3.78;1.98;;;22.00;56.10;;;;;;5066595;28;20025;-65
2022/06/15 03:34:28;;;;;;;4.45;1.98;;;22.00;56.10;;;;;;5061457;28;20186;-65
2022/06/15 03:36:53;;;;;;;3.55;2.00;;;22.00;56.10;;;;;;5067635;28;20541;-65
2022/06/15 03:39:19;;;;;;;5.15;2.20;;;22.00;56.30;;;;;;5064898;28;20028;-65
2022/06/15 03:42:10;;;;;;;5.45;2.30;;;22.00;56.30;;;;;;5578663;22;20492;-61
2022/06/15 03:44:36;;;;;;;8.27;2.58;;;22.00;56.40;;;;;;5023576;28;20053;-67
2022/06/15 03:47:01;;;;;;;5.63;2.35;;;22.00;56.80;;;;;;5026374;28;20378;-66
2022/06/15 03:49:27;;;;;;;6.40;2.38;;;22.00;56.80;;;;;;5027053;28;20404;-67
2022/06/15 03:51:53;;;;;;;6.55;2.45;;;22.00;56.90;;;;;;5024914;28;20030;-67
2022/06/15 03:54:18;;;;;;;5.60;2.00;;;22.00;56.90;;;;;;5026357;28;20060;-66
2022/06/15 03:56:48;;;;;;;5.85;2.28;;;21.90;56.80;;;;;;5028380;28;20388;-67
2022/06/15 03:59:13;;;;;;;5.18;2.03;;;22.00;56.80;;;;;;5025595;28;20032;-67
2022/06/15 04:01:39;;;;;;;5.50;2.28;;;22.00;56.90;;;;;;5025438;28;20033;-66
2022/06/15 04:04:05;;;;;;;6.60;2.17;;;22.00;56.90;;;;;;5024885;28;20098;-67
2022/06/15 04:06:31;;;;;;;7.10;2.22;;;21.90;56.90;;;;;;5025631;28;20021;-67
2022/06/15 04:08:56;;;;;;;6.00;2.55;;;21.90;56.90;;;;;;5027187;28;20025;-67
2022/06/15 04:14:06;;;;;;;7.13;2.40;;;21.90;57.00;;;;;;5025012;28;20040;-67
2022/06/15 04:16:34;;;;;;;6.18;2.45;;;21.90;57.10;;;;;;5025049;28;20017;-67
2022/06/15 04:19:02;;;;;;;5.40;2.25;;;21.90;57.10;;;;;;5004704;28;20056;-66
2022/06/15 04:21:28;;;;;;;6.93;2.25;;;21.90;57.20;;;;;;5025654;28;20034;-67
2022/06/15 04:23:54;;;;;;;6.80;2.13;;;21.90;57.20;;;;;;5008029;28;20524;-67
2022/06/15 04:26:19;;;;;;;5.50;2.20;;;21.90;57.20;;;;;;5024271;28;20026;-66
2022/06/15 04:28:45;;;;;;;7.43;2.33;;;21.90;57.20;;;;;;5025848;28;20039;-67
2022/06/15 04:31:11;;;;;;;8.13;2.47;;;21.90;57.20;;;;;;5022692;28;20021;-67
2022/06/15 04:33:36;;;;;;;5.43;2.28;;;21.90;57.30;;;;;;5020963;28;20069;-66
2022/06/15 04:36:02;;;;;;;7.50;2.30;;;21.90;57.30;;;;;;5024372;28;20396;-67
2022/06/15 04:38:28;;;;;;;5.65;2.25;;;21.90;57.30;;;;;;5009332;28;20520;-67
2022/06/15 04:40:54;;;;;;;7.50;2.20;;;21.80;57.30;;;;;;5021624;28;20026;-66
2022/06/15 04:43:19;;;;;;;4.28;2.00;;;21.90;57.30;;;;;;5036630;28;20460;-67
2022/06/15 04:45:45;;;;;;;6.00;2.03;;;21.80;57.30;;;;;;5044643;28;20032;-66
2022/06/15 04:48:11;;;;;;;6.07;2.00;;;21.80;57.30;;;;;;5045819;28;20021;-67
2022/06/15 04:50:37;;;;;;;4.78;2.40;;;21.90;58.30;;;;;;5045794;28;20030;-67
2022/06/15 04:53:05;;;;;;;4.43;2.08;;;21.80;57.30;;;;;;5045911;28;20036;-67
2022/06/15 04:55:31;;;;;;;6.38;2.40;;;21.80;57.30;;;;;;5045600;28;20033;-67
2022/06/15 04:57:59;;;;;;;3.97;2.10;;;21.80;57.30;;;;;;5044059;28;20384;-67
2022/06/15 05:00:25;;;;;;;4.80;2.22;;;21.80;57.30;;;;;;5045612;28;20041;-66
2022/06/15 05:02:51;;;;;;;8.63;2.42;;;21.80;57.30;;;;;;5047605;28;20036;-66
2022/06/15 05:05:18;;;;;;;5.97;2.33;;;21.80;57.50;;;;;;5048617;28;20048;-67
2022/06/15 05:07:43;;;;;;;6.82;2.17;;;21.80;57.40;;;;;;5049044;28;20036;-66
2022/06/15 05:10:18;;;;;;;6.03;2.10;;;21.80;57.40;;;;;;5048337;28;20033;-67
2022/06/15 05:12:44;;;;;;;5.00;2.05;;;21.80;57.50;;;;;;5029070;28;20032;-67
2022/06/15 05:15:10;;;;;;;10.50;2.35;;;21.80;57.40;;;;;;5050051;28;20036;-66
2022/06/15 05:17:35;;;;;;;6.15;2.13;;;21.80;57.50;;;;;;5050635;28;20523;-66
2022/06/15 05:20:01;;;;;;;6.43;2.00;;;21.80;57.60;;;;;;5049571;28;20025;-66
2022/06/15 05:22:27;;;;;;;8.13;2.25;;;21.80;57.70;;;;;;5048956;28;21930;-66
2022/06/15 05:24:53;;;;;;;5.95;2.22;;;21.80;57.70;;;;;;5047326;28;20044;-67
2022/06/15 05:27:18;;;;;;;8.70;1.95;;;21.80;57.60;;;;;;5048530;28;20029;-66
2022/06/15 05:29:44;;;;;;;5.97;2.03;;;21.80;57.60;;;;;;5049974;28;20108;-66
2022/06/15 05:32:09;;;;;;;5.40;2.08;;;21.80;57.60;;;;;;5048447;28;20108;-67
2022/06/15 05:34:35;;;;;;;5.85;2.30;;;21.80;57.60;;;;;;5049159;28;20107;-66
2022/06/15 05:37:01;;;;;;;6.90;2.30;;;21.80;57.70;;;;;;5048670;28;20030;-66
2022/06/15 05:39:27;;;;;;;5.45;2.30;;;21.80;57.60;;;;;;5048968;28;20043;-67
2022/06/15 05:41:52;;;;;;;4.85;1.90;;;21.80;57.70;;;;;;5049549;28;20415;-66
2022/06/15 05:46:44;;;;;;;6.20;2.30;;;21.80;57.60;;;;;;5049010;28;20036;-66
2022/06/15 05:49:10;;;;;;;5.50;2.25;;;21.80;57.60;;;;;;5048266;28;20025;-66
2022/06/15 05:51:36;;;;;;;5.57;2.25;;;21.80;57.60;;;;;;5048792;28;20037;-66
2022/06/15 05:54:02;;;;;;;7.25;2.40;;;21.80;57.60;;;;;;5046907;28;20032;-66
2022/06/15 05:56:27;;;;;;;5.78;2.20;;;21.80;57.60;;;;;;5049446;28;20036;-66
2022/06/15 05:58:53;;;;;;;7.05;2.20;;;21.80;57.60;;;;;;5048236;28;20025;-66
2022/06/15 06:01:30;;;;;;;7.45;2.10;;;21.80;57.60;;;;;;5048894;28;20073;-66
2022/06/15 06:03:55;;;;;;;5.53;2.13;;;21.80;57.60;;;;;;5048915;28;20045;-66
2022/06/15 06:06:21;;;;;;;6.00;2.05;;;21.80;57.50;;;;;;5048803;28;20489;-66
2022/06/15 06:08:47;;;;;;;5.72;2.30;;;21.80;57.50;;;;;;5048319;28;20102;-66
2022/06/15 06:11:13;;;;;;;5.45;2.05;;;21.80;57.60;;;;;;5048112;28;20021;-66
2022/06/15 06:13:38;;;;;;;6.50;2.20;;;21.80;57.60;;;;;;5046824;28;20029;-66
2022/06/15 06:16:04;;;;;;;4.75;2.10;;;21.80;57.70;;;;;;5046116;28;20556;-67
2022/06/15 06:18:30;;;;;;;7.38;2.20;;;21.80;57.50;;;;;;5048267;28;20072;-66
2022/06/15 06:20:55;;;;;;;7.43;2.42;;;21.80;57.50;;;;;;5048912;28;20028;-66
2022/06/15 06:23:21;;;;;;;6.38;2.15;;;21.80;57.40;;;;;;5048587;28;20040;-66
2022/06/15 06:25:50;;;;;;;4.45;1.80;;;21.80;57.40;;;;;;5048477;28;20636;-66
2022/06/15 06:28:42;;;;;;;5.55;2.10;;;21.80;57.40;;;;;;5059352;28;20021;-66
2022/06/15 06:31:09;;;;;;;4.30;2.15;;;21.80;57.40;;;;;;5042952;28;20511;-66
2022/06/15 06:33:36;;;;;;;5.22;2.10;;;21.80;57.40;;;;;;5044006;28;20051;-65
2022/06/15 06:36:04;;;;;;;5.15;2.10;;;21.80;57.40;;;;;;5048883;28;20028;-67
2022/06/15 06:38:29;;;;;;;8.05;2.13;;;21.80;57.30;;;;;;5046857;28;20054;-66
2022/06/15 06:40:55;;;;;;;6.38;1.85;;;21.80;57.40;;;;;;5060319;28;20563;-66
2022/06/15 06:43:21;;;;;;;7.20;2.10;;;21.80;57.30;;;;;;5062810;28;20175;-66
2022/06/15 06:45:47;;;;;;;4.97;2.15;;;21.80;57.30;;;;;;5047655;28;20041;-67
2022/06/15 06:48:13;;;;;;;4.50;2.15;;;21.80;57.30;;;;;;5046122;28;21162;-66
2022/06/15 06:50:40;;;;;;;5.30;2.20;;;21.80;57.30;;;;;;5048622;28;20025;-66
2022/06/15 06:53:06;;;;;;;5.07;2.00;;;21.80;57.30;;;;;;5047338;28;20382;-66
2022/06/15 06:55:32;;;;;;;5.03;2.28;;;21.80;57.30;;;;;;5047618;28;20051;-66
2022/06/15 06:57:58;;;;;;;7.20;2.10;;;21.80;57.30;;;;;;5047392;28;20540;-66
2022/06/15 07:00:24;;;;;;;6.43;2.00;;;21.80;57.30;;;;;;5046990;28;20020;-66
2022/06/15 07:02:50;;;;;;;5.65;2.30;;;21.80;57.30;;;;;;5045533;28;20031;-67
2022/06/15 07:05:16;;;;;;;4.70;2.00;;;21.80;57.30;;;;;;5045790;28;20049;-65
2022/06/15 07:07:42;;;;;;;6.28;2.30;;;21.80;57.30;;;;;;5046664;28;20051;-66
2022/06/15 07:10:08;;;;;;;6.18;2.22;;;21.80;57.30;;;;;;5047243;28;20158;-66
2022/06/15 07:12:34;;;;;;;4.35;2.10;;;21.80;57.30;;;;;;5047494;28;20083;-67
2022/06/15 07:14:59;;;;;;;4.53;2.08;;;21.80;57.20;;;;;;5047661;28;20448;-66
2022/06/15 07:17:25;;;;;;;6.28;2.22;;;21.80;57.20;;;;;;5047446;28;20036;-66
2022/06/15 07:19:51;;;;;;;5.13;2.15;;;21.80;57.20;;;;;;5046277;28;20025;-66
2022/06/15 07:22:16;;;;;;;7.60;2.50;;;21.80;57.20;;;;;;5046585;28;20544;-66
2022/06/15 07:24:42;;;;;;;6.65;2.08;;;21.80;57.20;;;;;;5046691;28;20108;-66
2022/06/15 07:27:07;;;;;;;4.97;2.00;;;21.80;57.20;;;;;;5045439;28;20115;-66
2022/06/15 07:29:33;;;;;;;5.35;1.90;;;21.80;57.10;;;;;;5047848;28;20033;-66
2022/06/15 07:31:59;;;;;;;6.57;2.10;;;21.80;58.20;;;;;;5046763;28;20512;-67
2022/06/15 07:34:24;;;;;;;5.65;1.98;;;21.80;57.20;;;;;;5045967;28;20511;-66
2022/06/15 07:36:50;;;;;;;6.13;2.22;;;21.80;57.10;;;;;;5045324;28;20399;-66
2022/06/15 07:39:29;;;;;;;5.82;2.25;;;21.90;57.10;;;;;;5045019;28;20033;-67
2022/06/15 07:41:55;;;;;;;4.50;2.35;;;21.80;57.00;;;;;;5044634;28;20082;-66
2022/06/15 07:44:22;;;;;;;3.67;1.95;;;21.80;57.00;;;;;;5046985;28;20053;-66
2022/06/15 07:46:47;;;;;;;4.85;2.17;;;21.90;57.10;;;;;;5046106;28;20500;-66
2022/06/15 07:51:59;;;;;;;4.32;2.05;;;21.90;57.00;;;;;;5043047;28;20032;-67
2022/06/15 07:54:26;;;;;;;6.93;2.20;;;21.90;57.00;;;;;;5042606;28;20049;-67
2022/06/15 07:56:52;;;;;;;6.43;2.03;;;21.90;57.00;;;;;;5048172;28;20029;-67
2022/06/15 07:59:19;;;;;;;6.10;2.10;;;21.90;56.90;;;;;;5044888;28;20544;-67
2022/06/15 08:01:45;;;;;;;4.63;2.22;;;21.90;58.00;;;;;;5044352;28;20024;-67
2022/06/15 08:04:11;;;;;;;3.75;2.00;;;21.90;56.90;;;;;;5042063;28;20033;-67
2022/06/15 08:06:37;;;;;;;5.65;2.10;;;21.90;56.90;;;;;;5045259;28;20021;-67
2022/06/15 08:09:05;;;;;;;3.72;1.88;;;21.90;57.00;;;;;;5026358;28;21558;-67
2022/06/15 08:11:31;;;;;;;4.57;2.15;;;21.90;57.00;;;;;;5044414;28;20031;-67
2022/06/15 08:13:56;;;;;;;4.30;1.85;;;22.00;57.00;;;;;;5046148;28;20123;-67
2022/06/15 08:16:22;;;;;;;4.72;2.08;;;21.90;57.00;;;;;;5046448;28;20096;-67
2022/06/15 08:18:52;;;;;;;4.43;2.10;;;22.00;57.10;;;;;;5045328;28;20060;-67
2022/06/15 08:21:24;;;;;;;6.15;2.00;;;22.00;57.00;;;;;;5046044;28;20542;-67
2022/06/15 08:23:51;;;;;;;4.65;2.17;;;22.00;57.10;;;;;;5043574;28;20029;-67
2022/06/15 08:26:20;;;;;;;5.78;2.38;;;22.00;57.10;;;;;;5044410;28;20039;-67
2022/06/15 08:28:48;;;;;;;4.95;2.25;;;22.00;57.10;;;;;;5043541;28;20031;-67
2022/06/15 08:31:14;;;;;;;5.32;2.10;;;22.00;57.20;;;;;;5028145;28;20039;-67
2022/06/15 08:33:40;;;;;;;5.78;2.28;;;22.00;57.10;;;;;;5045544;28;20420;-67
2022/06/15 08:36:06;;;;;;;5.03;2.33;;;22.00;57.20;;;;;;5045535;28;20029;-67
2022/06/15 08:38:32;;;;;;;5.07;2.33;;;22.10;57.20;;;;;;5046611;28;20056;-67
2022/06/15 08:41:16;;;;;;;4.70;2.25;;;22.00;57.10;;;;;;5044561;28;20057;-67
2022/06/15 08:44:09;;;;;;;3.50;1.90;;;22.00;57.20;;;;;;5037238;28;20547;-67
2022/06/15 08:46:41;;;;;;;4.38;2.10;;;22.10;57.30;;;;;;5045271;28;20025;-67
2022/06/15 08:49:10;;;;;;;5.47;2.30;;;22.10;57.20;;;;;;5044995;28;20128;-67
2022/06/15 08:51:44;;;;;;;4.25;2.22;;;22.10;57.20;;;;;;5045464;28;20189;-67
2022/06/15 08:54:18;;;;;;;5.43;2.20;;;22.10;57.30;;;;;;5044803;28;20028;-67
2022/06/15 08:56:43;;;;;;;6.30;2.20;;;22.10;57.30;;;;;;5059390;28;20063;-67
2022/06/15 08:59:29;;;;;;;5.18;2.25;;;22.10;57.30;;;;;;5042969;28;20086;-67
2022/06/15 09:02:01;;;;;;;7.70;2.25;;;22.10;57.30;;;;;;5057305;28;20416;-67
2022/06/15 09:04:40;;;;;;;5.63;2.20;;;22.10;57.30;;;;;;5042578;28;20098;-67
2022/06/15 09:07:16;;;;;;;4.32;2.10;;;22.20;57.40;;;;;;5060612;28;20033;-67
2022/06/15 09:09:48;;;;;;;4.50;2.10;;;22.20;57.40;;;;;;5056418;28;20024;-67
2022/06/15 09:15:19;;;;;;;6.97;2.35;;;22.20;57.40;;;;;;5056414;28;20174;-67
2022/06/15 09:17:46;;;;;;;4.38;2.10;;;22.20;57.40;;;;;;5046419;28;20028;-67
2022/06/15 09:20:18;;;;;;;5.60;2.40;;;22.20;57.30;;;;;;5058948;28;20100;-67
2022/06/15 09:22:50;;;;;;;3.67;2.03;;;22.30;57.40;;;;;;5045486;28;20125;-67
2022/06/15 09:25:34;;;;;;;6.13;2.20;;;22.30;57.50;;;;;;5044289;28;20120;-67
2022/06/15 09:28:04;;;;;;;6.13;2.80;;;22.30;57.40;;;;;;5056892;28;20052;-67
2022/06/15 09:30:32;;;;;;;7.05;3.05;;;22.30;58.40;;;;;;5041072;28;20404;-67
2022/06/15 09:33:07;;;;;;;10.30;3.05;;;22.40;58.80;;;;;;5027993;28;20627;-67
2022/06/15 09:35:37;;;;;;;5.75;2.60;;;22.40;58.90;;;;;;5028529;28;20408;-67
2022/06/15 09:38:06;;;;;;;6.20;2.70;;;22.40;58.70;;;;;;5042074;28;20158;-67
2022/06/15 09:40:45;;;;;;;5.72;2.42;;;22.40;58.60;;;;;;5044934;28;20040;-67
2022/06/15 09:43:16;;;;;;;5.38;2.47;;;22.40;58.50;;;;;;5059982;28;20528;-67
2022/06/15 09:46:14;;;;;;;6.38;2.55;;;22.40;58.40;;;;;;5025361;28;20028;-66
2022/06/15 09:48:49;;;;;;;5.97;2.30;;;22.50;58.60;;;;;;5042618;28;20032;-67
2022/06/15 09:51:35;;;;;;;;;;;22.50;58.30;;;;;;5049684;28;20056;-67
2022/06/15 09:54:13;;;;;;;8.18;2.75;;;22.50;58.30;;;;;;5024929;28;19919;-67
2022/06/15 09:56:39;;;;;;;7.50;2.50;;;22.50;58.40;;;;;;5009869;28;20033;-67
2022/06/15 09:59:09;;;;;;;5.70;2.42;;;22.60;58.40;;;;;;5026173;28;20616;-67
2022/06/15 10:01:38;;;;;;;5.88;2.80;;;22.50;58.50;;;;;;5004945;28;20138;-67
2022/06/15 10:04:04;;;;;;;8.00;2.63;;;22.60;58.50;;;;;;5010031;28;20124;-67
2022/06/15 10:06:51;;;;;;;6.82;2.58;;;22.60;58.50;;;;;;5026331;28;20042;-67
2022/06/15 10:09:17;;;;;;;5.68;2.53;;;22.60;58.40;;;;;;5032991;28;20523;-67
2022/06/15 10:11:48;;;;;;;8.55;2.78;;;22.60;58.50;;;;;;5008867;28;20086;-67
2022/06/15 10:14:19;;;;;;;6.90;2.47;;;22.60;58.70;;;;;;5008756;28;20037;-67
2022/06/15 10:17:05;;;;;;;6.05;2.30;;;22.70;58.50;;;;;;5025859;28;20441;-68
2022/06/15 10:19:32;;;;;;;6.93;2.55;;;22.70;58.40;;;;;;5024349;28;20562;-68
2022/06/15 10:22:10;;;;;;;5.43;2.30;;;22.60;58.40;;;;;;5008674;28;20083;-67
2022/06/15 10:24:36;;;;;;;6.72;2.40;;;22.60;58.30;;;;;;4993342;28;20894;-67
2022/06/15 10:27:28;;;;;;;7.88;2.80;;;22.70;58.20;;;;;;4993005;28;20029;-67
2022/06/15 10:30:02;;;;;;;6.35;2.78;;;22.70;58.30;;;;;;5024665;28;20039;-68
2022/06/15 10:32:29;;;;;;;6.15;2.53;;;22.80;58.30;;;;;;5047948;28;20021;-67
2022/06/15 10:35:16;;;;;;;7.50;2.95;;;22.70;58.40;;;;;;5047987;28;20039;-67
2022/06/15 10:37:56;;;;;;;7.68;2.60;;;22.80;58.30;;;;;;5047536;28;20524;-67
2022/06/15 10:40:22;;;;;;;5.00;2.50;;;22.80;58.40;;;;;;5062334;28;20699;-67
2022/06/15 10:43:14;;;;;;;6.65;2.80;;;22.80;58.40;;;;;;5047211;28;20049;-66
2022/06/15 10:45:55;;;;;;;6.20;2.70;;;22.80;58.40;;;;;;5033001;28;20044;-67
2022/06/15 10:48:29;;;;;;;5.10;2.42;;;22.80;58.50;;;;;;5045183;28;20021;-68
2022/06/15 10:51:06;;;;;;;6.15;2.60;;;22.80;58.40;;;;;;5046355;28;20108;-67
2022/06/15 10:53:42;;;;;;;6.70;2.50;;;22.90;58.40;;;;;;5031031;28;20041;-68
2022/06/15 11:02:23;;;;;;;7.35;2.50;;;22.90;58.30;;;;;;5043459;28;20040;-68
2022/06/15 11:04:49;;;;;;;7.15;2.63;;;22.90;58.40;;;;;;5043209;28;20127;-69
2022/06/15 11:07:20;;;;;;;6.63;2.60;;;23.00;58.30;;;;;;5045066;28;20572;-69
2022/06/15 11:09:55;;;;;;;5.80;2.53;;;23.00;58.40;;;;;;5046532;28;20037;-68
2022/06/15 11:12:40;;;;;;;5.75;2.33;;;23.00;58.30;;;;;;5045416;28;20041;-69
2022/06/15 11:15:13;;;;;;;8.02;2.78;;;23.00;58.30;;;;;;5043216;28;20022;-68
2022/06/15 11:20:41;;;;;;;7.95;2.70;;;23.10;58.30;;;;;;5047834;28;20063;-69
2022/06/15 11:23:23;;;;;;;7.47;3.20;;;23.10;58.30;;;;;;5049418;28;20037;-68
2022/06/15 11:28:59;;;;;;;6.82;3.10;;;23.30;57.90;;;;;;5045826;28;20432;-68
2022/06/15 11:31:26;;;;;;;7.97;3.15;;;23.30;58.10;;;;;;5052736;28;20017;-69
2022/06/15 11:34:21;;;;;;;7.15;3.20;;;23.30;58.20;;;;;;5028147;28;20063;-69
2022/06/15 11:36:53;;;;;;;6.78;3.00;;;23.30;58.10;;;;;;5028147;28;20047;-69
2022/06/15 11:39:49;;;;;;;6.55;2.55;;;23.30;58.10;;;;;;5029157;28;20678;-69
2022/06/15 11:42:16;;;;;;;7.97;2.83;;;23.30;58.00;;;;;;5043929;28;20052;-66
2022/06/15 11:44:43;;;;;;;6.88;2.78;;;23.30;58.20;;;;;;5046858;28;20036;-67
2022/06/15 11:47:15;;;;;;;7.45;2.80;;;23.30;58.00;;;;;;5061033;28;20059;-66
2022/06/15 11:49:50;;;;;;;7.15;2.75;;;23.30;58.00;;;;;;5060082;28;20036;-66
2022/06/15 11:52:38;;;;;;;7.72;2.88;;;23.30;58.00;;;;;;5046882;28;20171;-66
2022/06/15 11:55:16;;;;;;;7.93;3.08;;;23.40;58.00;;;;;;4985378;28;20041;-67
2022/06/15 11:57:45;;;;;;;7.10;2.78;;;23.40;58.00;;;;;;4951625;28;20042;-67
2022/06/15 12:00:33;;;;;;;6.82;2.67;;;23.40;58.00;;;;;;4984788;28;20034;-66
2022/06/15 12:03:12;;;;;;;7.18;2.80;;;23.40;57.90;;;;;;4982920;28;20085;-67
2022/06/15 12:05:51;;;;;;;10.07;2.90;;;23.40;57.80;;;;;;4984496;28;20573;-66
2022/06/15 12:08:27;;;;;;;6.35;3.25;;;23.40;57.70;;;;;;4987067;28;20023;-67
2022/06/15 12:12:37;;;;;;;5.38;2.75;;;23.40;57.80;;;;;;4950680;28;20037;-68
2022/06/15 12:14:04;;;;;;;6.70;3.00;;;23.40;57.70;;;;;;4983065;28;20074;-68
2022/06/15 12:16:38;;;;;;;6.95;2.83;;;23.40;57.60;;;;;;4984584;28;20026;-68
2022/06/15 12:19:37;;;;;;;6.55;3.03;;;23.50;57.60;;;;;;4985484;28;20047;-70
2022/06/15 12:22:24;;;;;;;10.15;3.20;;;23.50;57.70;;;;;;4983074;28;20037;-69
2022/06/15 12:25:12;;;;;;;8.45;2.92;;;23.50;57.50;;;;;;4981718;28;20133;-70
2022/06/15 12:27:41;;;;;;;8.13;3.38;;;23.50;57.40;;;;;;4983103;28;20589;-69
2022/06/15 12:30:28;;;;;;;16.65;3.45;;;23.60;57.20;;;;;;4980473;28;20096;-70
2022/06/15 12:33:18;;;;;;;10.80;4.03;;;23.60;56.90;;;;;;5044561;28;20506;-69
2022/06/15 12:35:49;;;;;;;10.70;3.58;;;23.50;56.80;;;;;;5046497;28;20402;-69
2022/06/15 12:38:23;;;;;;;11.82;4.13;;;23.50;56.70;;;;;;5059963;28;20025;-69
2022/06/15 12:44:02;;;;;;;11.88;5.05;;;23.30;56.20;;;;;;5043470;28;20187;-69
2022/06/15 12:46:28;;;;;;;15.45;5.20;;;23.30;56.50;;;;;;5045059;28;20477;-69
2022/06/15 12:49:03;;;;;;;11.95;4.28;;;23.40;56.50;;;;;;5048340;28;20035;-70
2022/06/15 12:51:47;;;;;;;11.50;4.88;;;23.40;56.50;;;;;;5044481;28;20025;-70
2022/06/15 12:54:27;;;;;;;14.98;5.00;;;23.40;56.50;;;;;;5041499;28;20029;-70
2022/06/15 12:57:07;;;;;;;11.98;4.43;;;23.40;56.60;;;;;;5030295;28;20082;-70
2022/06/15 13:00:04;;;;;;;11.88;4.35;;;23.50;56.80;;;;;;5044367;28;20029;-70
2022/06/15 13:02:47;;;;;;;10.23;4.20;;;23.50;56.70;;;;;;5025960;28;20044;-70
2022/06/15 13:05:31;;;;;;;14.30;4.22;;;23.50;56.70;;;;;;5043692;28;20068;-70
2022/06/15 13:08:20;;;;;;;13.55;4.97;;;23.50;56.70;;;;;;5043828;28;20025;-69
2022/06/15 13:10:46;;;;;;;12.25;4.50;;;23.50;56.60;;;;;;5042023;28;20033;-70
2022/06/15 13:13:23;;;;;;;13.27;4.97;;;23.50;56.40;;;;;;5043694;28;20036;-70
2022/06/15 13:15:51;;;;;;;12.82;5.43;;;23.50;56.60;;;;;;5044583;28;20075;-70
2022/06/15 13:18:17;;;;;;;14.02;5.22;;;23.50;56.60;;;;;;5043457;28;20036;-69
2022/06/15 13:20:46;;;;;;;12.70;5.07;;;23.50;56.70;;;;;;5027963;28;20074;-70
2022/06/15 13:23:34;;;;;;;11.70;4.93;;;23.50;56.40;;;;;;5043681;28;20029;-70
2022/06/15 13:26:06;;;;;;;15.05;5.05;;;23.50;56.50;;;;;;5046149;28;20067;-70
2022/06/15 13:28:37;;;;;;;13.52;4.97;;;23.50;56.40;;;;;;5048234;28;20416;-70
2022/06/15 13:31:09;;;;;;;14.10;5.40;;;23.60;56.50;;;;;;5029882;28;20097;-70